Time;durP1;ratioP1;P1;durP2;ratioP2;P2;SDS_P1;SDS_P2;PMS_P1;PMS_P2;Temp;Humidity;BMP_temperature;BMP_pressure;BME280_temperature;BME280_humidity;BME280_pressure;Samples;Min_cycle;Max_cycle;Signal;HPM_P1;HPM_P2
2021/03/12 00:01:16;;;;;;;23.42;14.90;;;;;;;;;;5035957;28;20068;-84
2021/03/12 00:03:42;;;;;;;19.05;13.90;;;;;;;;;;5051212;28;20079;-84
2021/03/12 00:06:10;;;;;;;25.55;17.27;;;;;;;;;;5035824;28;20029;-83
2021/03/12 00:08:37;;;;;;;25.67;18.08;;;;;;;;;;5035817;28;20453;-83
2021/03/12 00:11:04;;;;;;;34.22;21.67;;;;;;;;;;5035550;28;20107;-82
2021/03/12 00:13:30;;;;;;;25.85;15.95;;;;;;;;;;5035540;28;20048;-84
2021/03/12 00:15:56;;;;;;;17.60;11.93;;;;;;;;;;5035642;28;20376;-84
2021/03/12 00:18:24;;;;;;;13.55;10.20;;;;;;;;;;5035684;28;20431;-79
2021/03/12 00:20:51;;;;;;;11.45;8.52;;;;;;;;;;5035528;28;20384;-82
2021/03/12 00:23:17;;;;;;;16.05;10.73;;;;;;;;;;5035578;28;20099;-82
2021/03/12 00:25:44;;;;;;;18.58;11.40;;;;;;;;;;5035508;28;20037;-81
2021/03/12 00:28:10;;;;;;;20.42;12.45;;;;;;;;;;5050867;28;20032;-83
2021/03/12 00:30:37;;;;;;;21.95;12.90;;;;;;;;;;5035460;28;20524;-81
2021/03/12 00:33:04;;;;;;;23.83;13.50;;;;;;;;;;5050597;28;20121;-82
2021/03/12 00:35:30;;;;;;;23.88;13.30;;;;;;;;;;5035247;28;20025;-82
2021/03/12 00:37:56;;;;;;;19.70;11.98;;;;;;;;;;5034628;28;20030;-84
2021/03/12 00:40:25;;;;;;;20.15;12.05;;;;;;;;;;5035112;28;20025;-83
2021/03/12 00:42:51;;;;;;;17.63;11.45;;;;;;;;;;5035182;28;20033;-82
2021/03/12 00:45:18;;;;;;;18.65;12.88;;;;;;;;;;5035205;28;20566;-84
2021/03/12 00:47:44;;;;;;;22.58;13.98;;;;;;;;;;5035067;28;20088;-83
2021/03/12 00:50:11;;;;;;;23.20;14.20;;;;;;;;;;5035042;28;20041;-82
2021/03/12 00:52:38;;;;;;;25.65;17.42;;;;;;;;;;5034969;28;20094;-81
2021/03/12 00:55:04;;;;;;;24.10;15.90;;;;;;;;;;5034851;28;20033;-82
2021/03/12 00:57:31;;;;;;;25.20;16.20;;;;;;;;;;5034763;28;20598;-79
2021/03/12 00:59:57;;;;;;;19.58;12.73;;;;;;;;;;5034755;28;20409;-83
2021/03/12 01:02:23;;;;;;;15.75;11.20;;;;;;;;;;5034725;28;20036;-83
2021/03/12 01:04:49;;;;;;;20.58;13.02;;;;;;;;;;5034872;28;20044;-80
2021/03/12 01:07:15;;;;;;;16.48;12.38;;;;;;;;;;5034759;28;20026;-81
2021/03/12 01:09:42;;;;;;;18.00;12.90;;;;;;;;;;5034294;28;20495;-80
2021/03/12 01:12:08;;;;;;;16.15;11.70;;;;;;;;;;5034391;28;20037;-82
2021/03/12 01:14:34;;;;;;;19.48;13.23;;;;;;;;;;5034454;28;20056;-83
2021/03/12 01:17:00;;;;;;;16.60;12.15;;;;;;;;;;5034376;28;20377;-82
2021/03/12 01:19:26;;;;;;;19.27;13.70;;;;;;;;;;5034498;28;20079;-79
2021/03/12 01:21:52;;;;;;;25.10;17.75;;;;;;;;;;5034304;28;20388;-81
2021/03/12 01:24:18;;;;;;;29.33;19.13;;;;;;;;;;5034271;28;20028;-80
2021/03/12 01:26:45;;;;;;;34.45;20.10;;;;;;;;;;5034245;28;20029;-81
2021/03/12 01:29:11;;;;;;;27.27;17.38;;;;;;;;;;5034380;28;20071;-81
2021/03/12 01:31:37;;;;;;;29.30;19.77;;;;;;;;;;5034155;28;20091;-82
2021/03/12 01:34:03;;;;;;;23.83;15.30;;;;;;;;;;5034422;28;20031;-80
2021/03/12 01:36:29;;;;;;;20.83;14.65;;;;;;;;;;5034065;28;20026;-82
2021/03/12 01:38:55;;;;;;;21.38;13.55;;;;;;;;;;5034279;28;20031;-83
2021/03/12 01:41:21;;;;;;;19.63;12.45;;;;;;;;;;5033847;28;20084;-82
2021/03/12 01:43:47;;;;;;;21.00;13.40;;;;;;;;;;5034343;28;20112;-81
2021/03/12 01:46:13;;;;;;;22.33;14.68;;;;;;;;;;5034014;28;20060;-84
2021/03/12 01:48:40;;;;;;;21.90;14.85;;;;;;;;;;5033299;28;20025;-81
2021/03/12 01:51:07;;;;;;;17.23;13.93;;;;;;;;;;5033583;28;20033;-80
2021/03/12 01:53:34;;;;;;;20.95;14.63;;;;;;;;;;5033816;28;20030;-82
2021/03/12 01:56:01;;;;;;;22.65;16.40;;;;;;;;;;5033697;28;20025;-81
2021/03/12 01:58:27;;;;;;;26.77;17.33;;;;;;;;;;5033631;28;20104;-80
2021/03/12 02:00:54;;;;;;;21.98;13.52;;;;;;;;;;5049094;28;20029;-83
2021/03/12 02:03:22;;;;;;;25.20;17.00;;;;;;;;;;5033509;28;20021;-81
2021/03/12 02:05:49;;;;;;;22.20;16.15;;;;;;;;;;5033671;28;20101;-79
2021/03/12 02:08:15;;;;;;;21.50;15.73;;;;;;;;;;5033508;28;20029;-83
2021/03/12 02:10:41;;;;;;;24.60;16.50;;;;;;;;;;5033394;28;20125;-84
2021/03/12 02:13:11;;;;;;;25.27;16.00;;;;;;;;;;5048883;28;20048;-80
2021/03/12 02:15:55;;;;;;;19.30;14.07;;;;;;;;;;5033347;28;20096;-82
2021/03/12 02:18:22;;;;;;;;;;;;;;;;;;5049199;28;20021;-83
2021/03/12 02:20:51;;;;;;;16.33;10.43;;;;;;;;;;5033434;28;19905;-82
2021/03/12 02:23:36;;;;;;;16.20;10.88;;;;;;;;;;5033407;28;20051;-82
2021/03/12 02:26:31;;;;;;;17.13;11.07;;;;;;;;;;5033474;28;20469;-82
2021/03/12 02:29:02;;;;;;;15.25;10.68;;;;;;;;;;5032865;28;20045;-79
2021/03/12 02:31:29;;;;;;;17.00;12.07;;;;;;;;;;5033221;28;20083;-84
2021/03/12 02:33:59;;;;;;;15.18;9.77;;;;;;;;;;5033314;28;20075;-81
2021/03/12 02:36:28;;;;;;;16.17;11.48;;;;;;;;;;5033231;28;20022;-82
2021/03/12 02:38:55;;;;;;;15.10;11.32;;;;;;;;;;5033351;28;20465;-83
2021/03/12 02:41:24;;;;;;;15.00;11.40;;;;;;;;;;5033173;28;20473;-84
2021/03/12 02:43:51;;;;;;;13.48;10.10;;;;;;;;;;5032977;28;20026;-82
2021/03/12 02:46:19;;;;;;;23.05;15.68;;;;;;;;;;5032887;28;20467;-83
2021/03/12 02:48:45;;;;;;;36.55;21.90;;;;;;;;;;5048528;28;20029;-82
2021/03/12 02:51:12;;;;;;;12.27;9.32;;;;;;;;;;5033340;28;20072;-79
2021/03/12 02:53:38;;;;;;;12.48;8.63;;;;;;;;;;5033255;28;20132;-80
2021/03/12 02:56:04;;;;;;;11.20;8.25;;;;;;;;;;5033432;28;20381;-84
2021/03/12 02:58:31;;;;;;;14.48;11.95;;;;;;;;;;5031809;28;20166;-85
2021/03/12 03:01:00;;;;;;;18.85;13.15;;;;;;;;;;5034803;28;20465;-84
2021/03/12 03:03:26;;;;;;;15.07;11.02;;;;;;;;;;5037018;28;20021;-81
2021/03/12 03:05:53;;;;;;;25.70;18.45;;;;;;;;;;5037041;28;20076;-84
2021/03/12 03:08:19;;;;;;;61.25;29.63;;;;;;;;;;5052324;28;20034;-80
2021/03/12 03:10:46;;;;;;;31.98;16.60;;;;;;;;;;5052039;28;20045;-82
2021/03/12 03:13:12;;;;;;;22.25;13.75;;;;;;;;;;5052105;28;20049;-85
2021/03/12 03:15:38;;;;;;;42.55;24.10;;;;;;;;;;5036981;28;20025;-83
2021/03/12 03:18:05;;;;;;;33.72;20.02;;;;;;;;;;5036984;28;20026;-82
2021/03/12 03:20:32;;;;;;;18.65;12.25;;;;;;;;;;5036802;28;20030;-83
2021/03/12 03:22:58;;;;;;;14.07;9.65;;;;;;;;;;5036688;28;20037;-82
2021/03/12 03:25:24;;;;;;;13.65;8.80;;;;;;;;;;5036566;28;20124;-81
2021/03/12 03:27:50;;;;;;;11.73;7.88;;;;;;;;;;5035351;28;20033;-84
2021/03/12 03:30:16;;;;;;;14.73;9.43;;;;;;;;;;5036530;28;20491;-80
2021/03/12 03:32:42;;;;;;;13.10;9.68;;;;;;;;;;5036408;28;20034;-83
2021/03/12 03:35:09;;;;;;;14.05;10.10;;;;;;;;;;5036516;28;20030;-80
2021/03/12 03:37:36;;;;;;;17.35;10.98;;;;;;;;;;5036544;28;20025;-84
2021/03/12 03:40:03;;;;;;;19.58;12.07;;;;;;;;;;5036318;28;20033;-84
2021/03/12 03:42:30;;;;;;;14.93;10.27;;;;;;;;;;5036312;28;20354;-81
2021/03/12 03:44:57;;;;;;;27.13;15.80;;;;;;;;;;5036518;28;20021;-80
2021/03/12 03:47:26;;;;;;;22.45;13.25;;;;;;;;;;5036264;28;20059;-79
2021/03/12 03:49:52;;;;;;;22.73;13.45;;;;;;;;;;5036279;28;20027;-81
2021/03/12 03:52:20;;;;;;;12.85;9.65;;;;;;;;;;5036218;28;20029;-84
2021/03/12 03:54:47;;;;;;;12.50;9.45;;;;;;;;;;5036344;28;20029;-80
2021/03/12 03:57:15;;;;;;;10.35;7.70;;;;;;;;;;5036017;28;20025;-85
2021/03/12 03:59:42;;;;;;;12.32;8.73;;;;;;;;;;5036113;28;20040;-80
2021/03/12 04:02:13;;;;;;;9.65;7.53;;;;;;;;;;5035982;28;20022;-86
2021/03/12 04:04:39;;;;;;;10.20;7.57;;;;;;;;;;5036032;28;20025;-84
2021/03/12 04:07:06;;;;;;;12.23;8.85;;;;;;;;;;5035907;28;20025;-83
2021/03/12 04:09:33;;;;;;;10.70;8.50;;;;;;;;;;5034552;28;20025;-83
2021/03/12 04:12:00;;;;;;;11.43;7.95;;;;;;;;;;5034613;28;20057;-79
2021/03/12 04:14:26;;;;;;;11.50;8.23;;;;;;;;;;5035805;28;20116;-79
2021/03/12 04:16:53;;;;;;;12.45;8.70;;;;;;;;;;5035648;28;20495;-80
2021/03/12 04:19:20;;;;;;;11.10;8.30;;;;;;;;;;5034355;28;20083;-84
2021/03/12 04:21:47;;;;;;;13.35;8.50;;;;;;;;;;5035632;28;20491;-83
2021/03/12 04:24:13;;;;;;;12.20;9.23;;;;;;;;;;5035484;28;20033;-83
2021/03/12 04:26:40;;;;;;;13.20;9.70;;;;;;;;;;5035733;28;20021;-83
2021/03/12 04:29:06;;;;;;;15.57;10.20;;;;;;;;;;5035473;28;20018;-80
2021/03/12 04:31:32;;;;;;;14.88;10.40;;;;;;;;;;5050818;28;20032;-83
2021/03/12 04:33:59;;;;;;;12.90;9.77;;;;;;;;;;5035376;28;20057;-81
2021/03/12 04:36:25;;;;;;;14.20;10.00;;;;;;;;;;5035267;28;20025;-82
2021/03/12 04:38:51;;;;;;;15.65;10.15;;;;;;;;;;5035399;28;20029;-82
2021/03/12 04:41:18;;;;;;;12.27;9.90;;;;;;;;;;5035256;28;20079;-81
2021/03/12 04:43:44;;;;;;;20.52;12.68;;;;;;;;;;5035263;28;20465;-80
2021/03/12 04:46:12;;;;;;;21.15;15.40;;;;;;;;;;5035431;28;20021;-82
2021/03/12 04:48:39;;;;;;;17.48;12.55;;;;;;;;;;5035234;28;20066;-80
2021/03/12 04:51:06;;;;;;;37.78;23.90;;;;;;;;;;5034684;28;20441;-81
2021/03/12 04:53:32;;;;;;;27.90;17.08;;;;;;;;;;5034985;28;20159;-80
2021/03/12 04:55:59;;;;;;;26.35;16.30;;;;;;;;;;5035092;28;20431;-80
2021/03/12 04:58:25;;;;;;;32.13;19.15;;;;;;;;;;5034988;28;20088;-81
2021/03/12 05:00:52;;;;;;;140.82;70.93;;;;;;;;;;5034869;28;20109;-81
2021/03/12 05:03:18;;;;;;;126.80;64.50;;;;;;;;;;5034620;28;20496;-82
2021/03/12 05:05:45;;;;;;;91.10;53.38;;;;;;;;;;5034786;28;20523;-82
2021/03/12 05:08:12;;;;;;;101.32;62.80;;;;;;;;;;5034954;28;20025;-82
2021/03/12 05:10:44;;;;;;;86.47;47.65;;;;;;;;;;5034478;28;20085;-79
2021/03/12 05:13:10;;;;;;;23.67;17.40;;;;;;;;;;5034592;28;20036;-80
2021/03/12 05:15:36;;;;;;;19.70;15.43;;;;;;;;;;5034664;28;20026;-81
2021/03/12 05:18:02;;;;;;;25.48;18.90;;;;;;;;;;5034509;28;20029;-79
2021/03/12 05:20:28;;;;;;;73.38;44.30;;;;;;;;;;5034571;28;20108;-82
2021/03/12 05:22:54;;;;;;;42.00;27.13;;;;;;;;;;5034541;28;20105;-80
2021/03/12 05:25:20;;;;;;;51.03;32.00;;;;;;;;;;5034638;28;20025;-82
2021/03/12 05:27:46;;;;;;;34.67;22.23;;;;;;;;;;5034432;28;20104;-79
2021/03/12 05:30:13;;;;;;;28.50;20.77;;;;;;;;;;5034291;28;20033;-81
2021/03/12 05:32:41;;;;;;;28.67;20.17;;;;;;;;;;5034136;28;20059;-79
2021/03/12 05:35:07;;;;;;;33.17;22.95;;;;;;;;;;5034188;28;20078;-80
2021/03/12 05:37:33;;;;;;;37.65;24.17;;;;;;;;;;5034188;28;20032;-80
2021/03/12 05:39:59;;;;;;;29.33;18.73;;;;;;;;;;5034152;28;20033;-80
2021/03/12 05:42:26;;;;;;;15.73;11.75;;;;;;;;;;5034222;28;20033;-79
2021/03/12 05:44:54;;;;;;;18.23;13.05;;;;;;;;;;5034012;28;20465;-79
2021/03/12 05:47:20;;;;;;;20.90;16.25;;;;;;;;;;5033794;28;20109;-79
2021/03/12 05:49:46;;;;;;;24.45;16.58;;;;;;;;;;5033974;28;20030;-80
2021/03/12 05:52:12;;;;;;;28.38;17.77;;;;;;;;;;5033812;28;20037;-80
2021/03/12 05:54:39;;;;;;;61.45;41.83;;;;;;;;;;5033943;28;20036;-79
2021/03/12 05:57:05;;;;;;;50.45;37.08;;;;;;;;;;5033659;28;20546;-79
2021/03/12 05:59:33;;;;;;;33.30;22.80;;;;;;;;;;5035378;28;20029;-80
2021/03/12 06:01:59;;;;;;;25.25;17.33;;;;;;;;;;5033049;28;20029;-79
2021/03/12 06:04:25;;;;;;;19.30;14.18;;;;;;;;;;5044419;28;20025;-81
2021/03/12 06:06:51;;;;;;;24.02;16.00;;;;;;;;;;5053706;28;20039;-81
2021/03/12 06:09:17;;;;;;;18.60;13.07;;;;;;;;;;5048172;28;20080;-82
2021/03/12 06:11:43;;;;;;;23.35;15.68;;;;;;;;;;5053273;28;20049;-80
2021/03/12 06:14:09;;;;;;;35.85;23.17;;;;;;;;;;5053075;28;20107;-81
2021/03/12 06:16:36;;;;;;;43.35;25.98;;;;;;;;;;5046422;28;20103;-81
2021/03/12 06:19:15;;;;;;;28.73;20.00;;;;;;;;;;5032913;28;20073;-80
2021/03/12 06:21:42;;;;;;;37.05;23.63;;;;;;;;;;5032373;28;20033;-78
2021/03/12 06:24:24;;;;;;;29.17;19.70;;;;;;;;;;5032043;28;20163;-79
2021/03/12 06:26:51;;;;;;;27.33;17.70;;;;;;;;;;5032411;28;20037;-79
2021/03/12 06:29:17;;;;;;;26.85;19.20;;;;;;;;;;5032004;28;20036;-80
2021/03/12 06:31:50;;;;;;;23.88;17.05;;;;;;;;;;5025081;28;20397;-81
2021/03/12 06:34:17;;;;;;;29.17;22.98;;;;;;;;;;5043379;28;20028;-79
2021/03/12 06:36:43;;;;;;;28.65;19.80;;;;;;;;;;5042045;28;20028;-79
2021/03/12 06:39:09;;;;;;;37.45;27.73;;;;;;;;;;5032843;28;20075;-83
2021/03/12 06:41:56;;;;;;;25.38;18.67;;;;;;;;;;5030341;28;20030;-81
2021/03/12 06:44:29;;;;;;;41.50;29.77;;;;;;;;;;5029629;28;20033;-82
2021/03/12 06:46:55;;;;;;;44.22;31.52;;;;;;;;;;5030669;28;20030;-83
2021/03/12 06:49:21;;;;;;;21.70;16.13;;;;;;;;;;5030270;28;20030;-82
2021/03/12 06:52:06;;;;;;;18.65;14.50;;;;;;;;;;5029026;28;20025;-82
2021/03/12 06:54:48;;;;;;;22.88;16.77;;;;;;;;;;5030688;28;20114;-83
2021/03/12 06:57:21;;;;;;;31.52;22.58;;;;;;;;;;5030909;28;20489;-82
2021/03/12 06:59:56;;;;;;;29.15;17.88;;;;;;;;;;5030927;28;20030;-81
2021/03/12 07:02:41;;;;;;;35.20;24.83;;;;;;;;;;5029993;28;20055;-82
2021/03/12 07:05:07;;;;;;;23.30;16.52;;;;;;;;;;5030528;28;20037;-83
2021/03/12 07:07:34;;;;;;;15.75;12.20;;;;;;;;;;5030595;28;20030;-83
2021/03/12 07:10:00;;;;;;;17.33;11.32;;;;;;;;;;5030268;28;20050;-83
2021/03/12 07:12:45;;;;;;;17.73;14.52;;;;;;;;;;5030674;28;20037;-82
2021/03/12 07:15:11;;;;;;;;;;;;;;;;;;5031070;28;20033;-82
2021/03/12 07:17:37;;;;;;;21.73;15.70;;;;;;;;;;5030389;28;20364;-84
2021/03/12 07:20:05;;;;;;;35.50;21.45;;;;;;;;;;5030386;28;20029;-83
2021/03/12 07:22:32;;;;;;;20.38;13.40;;;;;;;;;;5030702;28;20124;-81
2021/03/12 07:24:59;;;;;;;14.73;10.65;;;;;;;;;;5030361;28;20029;-81
2021/03/12 07:27:25;;;;;;;22.17;14.05;;;;;;;;;;5030542;28;20025;-85
2021/03/12 07:29:52;;;;;;;25.15;17.23;;;;;;;;;;5029148;28;20042;-87
2021/03/12 07:32:21;;;;;;;24.67;17.90;;;;;;;;;;5028969;28;20045;-83
2021/03/12 07:34:47;;;;;;;22.65;16.08;;;;;;;;;;5029860;28;20026;-85
2021/03/12 07:37:14;;;;;;;17.42;12.98;;;;;;;;;;5030519;28;20116;-85
2021/03/12 07:39:42;;;;;;;13.80;10.18;;;;;;;;;;5029950;28;20031;-85
2021/03/12 07:42:18;;;;;;;22.27;15.38;;;;;;;;;;5029913;28;20053;-82
2021/03/12 07:45:02;;;;;;;13.68;10.55;;;;;;;;;;5029382;28;20402;-83
2021/03/12 07:47:29;;;;;;;14.70;10.60;;;;;;;;;;5031253;28;20488;-83
2021/03/12 07:49:55;;;;;;;12.32;9.65;;;;;;;;;;5026191;28;20029;-84
2021/03/12 07:52:40;;;;;;;21.13;16.92;;;;;;;;;;5030625;28;20127;-83
2021/03/12 07:55:06;;;;;;;11.60;9.50;;;;;;;;;;5032041;28;20041;-84
2021/03/12 07:57:32;;;;;;;12.18;9.00;;;;;;;;;;5034558;28;20033;-81
2021/03/12 08:00:00;;;;;;;16.48;10.80;;;;;;;;;;5036999;28;20029;-82
2021/03/12 08:02:46;;;;;;;14.50;11.30;;;;;;;;;;5048117;28;20029;-84
2021/03/12 08:05:30;;;;;;;13.00;10.07;;;;;;;;;;5044706;28;20565;-83
2021/03/12 08:07:56;;;;;;;21.50;16.63;;;;;;;;;;5039914;28;20029;-83
2021/03/12 08:10:23;;;;;;;8.85;6.70;;;;;;;;;;5039507;28;20536;-82
2021/03/12 08:12:49;;;;;;;8.90;8.00;;;;;;;;;;5038711;28;20067;-83
2021/03/12 08:15:16;;;;;;;15.77;13.10;;;;;;;;;;5033171;28;20140;-83
2021/03/12 08:17:43;;;;;;;13.90;12.40;;;;;;;;;;5028338;28;20069;-83
2021/03/12 08:20:29;;;;;;;10.95;9.10;;;;;;;;;;5043905;28;20030;-83
2021/03/12 08:22:58;;;;;;;10.60;8.48;;;;;;;;;;5032402;28;20025;-81
2021/03/12 08:25:36;;;;;;;21.48;14.75;;;;;;;;;;5032867;28;20029;-85
2021/03/12 08:28:03;;;;;;;17.50;13.13;;;;;;;;;;5032780;28;20555;-84
2021/03/12 08:30:47;;;;;;;9.73;8.25;;;;;;;;;;5032856;28;20680;-84
2021/03/12 08:33:22;;;;;;;14.77;11.38;;;;;;;;;;5040405;28;20052;-84
2021/03/12 08:35:52;;;;;;;13.00;9.88;;;;;;;;;;5035433;28;20036;-83
2021/03/12 08:38:28;;;;;;;11.35;8.85;;;;;;;;;;5031740;28;20026;-85
2021/03/12 08:41:08;;;;;;;11.65;8.73;;;;;;;;;;5039176;28;20036;-83
2021/03/12 08:43:35;;;;;;;11.77;9.35;;;;;;;;;;5041785;28;20079;-84
2021/03/12 08:46:02;;;;;;;10.98;8.38;;;;;;;;;;5041137;28;20037;-83
2021/03/12 08:48:35;;;;;;;9.25;8.25;;;;;;;;;;5051834;28;20029;-85
2021/03/12 08:51:04;;;;;;;8.82;6.85;;;;;;;;;;5030913;28;20033;-82
2021/03/12 08:53:32;;;;;;;11.23;8.00;;;;;;;;;;5053321;28;20152;-87
2021/03/12 08:55:59;;;;;;;13.05;9.82;;;;;;;;;;5040550;28;20024;-86
2021/03/12 08:58:30;;;;;;;9.88;7.80;;;;;;;;;;5046730;28;20384;-83
2021/03/12 09:01:00;;;;;;;7.88;6.75;;;;;;;;;;5049513;28;20488;-83
2021/03/12 09:03:29;;;;;;;8.63;7.00;;;;;;;;;;5016757;28;20022;-82
2021/03/12 09:06:03;;;;;;;8.25;6.82;;;;;;;;;;5042774;28;20044;-81
2021/03/12 09:08:30;;;;;;;8.32;6.97;;;;;;;;;;5051044;28;20040;-85
2021/03/12 09:10:57;;;;;;;11.45;7.32;;;;;;;;;;5028209;28;20532;-83
2021/03/12 09:13:24;;;;;;;9.52;7.22;;;;;;;;;;5023080;28;20049;-84
2021/03/12 09:15:52;;;;;;;9.45;7.18;;;;;;;;;;5042404;28;20045;-83
2021/03/12 09:18:21;;;;;;;13.23;8.27;;;;;;;;;;5030730;28;20434;-83
2021/03/12 09:20:52;;;;;;;9.52;7.63;;;;;;;;;;5030838;28;20033;-82
2021/03/12 09:23:18;;;;;;;9.65;7.68;;;;;;;;;;5032900;28;20098;-83
2021/03/12 09:25:44;;;;;;;12.32;9.00;;;;;;;;;;5025834;28;20033;-86
2021/03/12 09:28:21;;;;;;;17.45;12.85;;;;;;;;;;5020551;28;20080;-87
2021/03/12 09:30:50;;;;;;;17.17;12.02;;;;;;;;;;5044506;28;20044;-85
2021/03/12 09:33:27;;;;;;;24.88;16.48;;;;;;;;;;5020532;28;20060;-70
2021/03/12 09:35:53;;;;;;;10.23;7.78;;;;;;;;;;5026402;28;20512;-83
2021/03/12 09:38:48;;;;;;;12.40;9.05;;;;;;;;;;5023021;28;20026;-82
2021/03/12 09:41:18;;;;;;;8.05;6.47;;;;;;;;;;5024549;28;20113;-84
2021/03/12 09:44:01;;;;;;;9.00;7.03;;;;;;;;;;5030825;28;20400;-86
2021/03/12 09:46:31;;;;;;;12.15;7.88;;;;;;;;;;5031280;28;20033;-84
2021/03/12 09:48:58;;;;;;;9.52;7.35;;;;;;;;;;5032418;28;20033;-81
2021/03/12 09:51:25;;;;;;;9.55;7.88;;;;;;;;;;5031363;28;20064;-87
2021/03/12 09:53:53;;;;;;;19.70;16.50;;;;;;;;;;5032303;28;20147;-86
2021/03/12 09:56:21;;;;;;;9.25;7.78;;;;;;;;;;5031392;28;20044;-85
2021/03/12 09:58:47;;;;;;;9.43;7.53;;;;;;;;;;5032254;28;20037;-86
2021/03/12 10:01:14;;;;;;;9.60;6.55;;;;;;;;;;5030886;28;20029;-84
2021/03/12 10:03:41;;;;;;;10.82;6.75;;;;;;;;;;5031753;28;20025;-84
2021/03/12 10:06:08;;;;;;;9.82;7.95;;;;;;;;;;5031789;28;20029;-88
2021/03/12 10:08:34;;;;;;;13.00;9.93;;;;;;;;;;5032189;28;20472;-83
2021/03/12 10:11:00;;;;;;;9.93;7.43;;;;;;;;;;5030561;28;20060;-85
2021/03/12 10:13:35;;;;;;;7.90;6.80;;;;;;;;;;5028656;28;20056;-86
2021/03/12 10:16:20;;;;;;;8.57;6.07;;;;;;;;;;5030635;28;20104;-89
2021/03/12 10:18:56;;;;;;;7.65;5.95;;;;;;;;;;5029134;28;20396;-86
2021/03/12 10:21:22;;;;;;;7.35;5.90;;;;;;;;;;5030473;28;20558;-86
2021/03/12 10:23:50;;;;;;;7.20;5.45;;;;;;;;;;5029544;28;20021;-84
2021/03/12 10:26:26;;;;;;;7.45;5.82;;;;;;;;;;5030831;28;20040;-84
2021/03/12 10:28:52;;;;;;;15.35;9.43;;;;;;;;;;5030091;28;20037;-84
2021/03/12 10:31:22;;;;;;;11.05;7.80;;;;;;;;;;5030276;28;20033;-87
2021/03/12 10:33:49;;;;;;;8.85;7.63;;;;;;;;;;5027725;28;20465;-88
2021/03/12 10:36:17;;;;;;;17.10;12.65;;;;;;;;;;5028872;28;20029;-86
2021/03/12 10:38:46;;;;;;;8.65;6.90;;;;;;;;;;5028571;28;20170;-88
2021/03/12 10:41:19;;;;;;;10.50;7.93;;;;;;;;;;5041955;28;20481;-84
2021/03/12 10:43:56;;;;;;;12.55;6.72;;;;;;;;;;5029610;28;20171;-77
2021/03/12 10:46:22;;;;;;;12.77;6.45;;;;;;;;;;5030223;28;20029;-83
2021/03/12 10:48:48;;;;;;;8.52;7.63;;;;;;;;;;5028796;28;20029;-84
2021/03/12 10:51:16;;;;;;;8.98;7.05;;;;;;;;;;5029554;28;20079;-83
2021/03/12 10:53:55;;;;;;;7.05;5.97;;;;;;;;;;5031025;28;20072;-81
2021/03/12 10:56:22;;;;;;;10.02;7.97;;;;;;;;;;5035126;28;20468;-84
2021/03/12 10:58:50;;;;;;;8.23;6.50;;;;;;;;;;5050619;28;20052;-86
2021/03/12 11:04:09;;;;;;;7.05;6.35;;;;;;;;;;5051130;28;20083;-86
2021/03/12 11:06:36;;;;;;;8.95;6.88;;;;;;;;;;5042774;28;20151;-80
2021/03/12 11:09:06;;;;;;;8.80;6.07;;;;;;;;;;5030566;28;20071;-80
2021/03/12 11:11:33;;;;;;;13.27;6.50;;;;;;;;;;5030170;28;20133;-84
2021/03/12 11:13:59;;;;;;;9.15;5.85;;;;;;;;;;5030257;28;20041;-88
2021/03/12 11:16:25;;;;;;;9.88;5.63;;;;;;;;;;5030825;28;20037;-84
2021/03/12 11:19:00;;;;;;;9.82;8.20;;;;;;;;;;5029395;28;20032;-86
2021/03/12 11:21:28;;;;;;;8.07;6.78;;;;;;;;;;5039781;28;20032;-81
2021/03/12 11:23:55;;;;;;;10.88;8.35;;;;;;;;;;5038604;28;20037;-89
2021/03/12 11:26:23;;;;;;;9.98;6.50;;;;;;;;;;5031410;28;20029;-87
2021/03/12 11:28:49;;;;;;;8.70;5.88;;;;;;;;;;5033584;28;20029;-84
2021/03/12 11:31:16;;;;;;;9.20;6.82;;;;;;;;;;5034144;28;20607;-85
2021/03/12 11:33:42;;;;;;;8.15;5.68;;;;;;;;;;5032115;28;20058;-87
2021/03/12 11:36:10;;;;;;;7.38;5.45;;;;;;;;;;5030902;28;20033;-86
2021/03/12 11:38:36;;;;;;;6.28;5.20;;;;;;;;;;5038874;28;20064;-86
2021/03/12 11:41:03;;;;;;;7.30;5.50;;;;;;;;;;5043348;28;20060;-84
2021/03/12 11:43:29;;;;;;;7.22;6.43;;;;;;;;;;5035688;28;20578;-82
2021/03/12 11:45:55;;;;;;;6.50;5.90;;;;;;;;;;5033218;28;20762;-86
2021/03/12 11:48:22;;;;;;;6.82;5.68;;;;;;;;;;5038552;28;20029;-86
2021/03/12 11:50:49;;;;;;;8.95;6.43;;;;;;;;;;5033107;28;20029;-86
2021/03/12 11:53:15;;;;;;;7.20;5.85;;;;;;;;;;5033184;28;20044;-82
2021/03/12 11:55:41;;;;;;;6.13;5.18;;;;;;;;;;5032459;28;20440;-84
2021/03/12 11:58:07;;;;;;;7.35;6.07;;;;;;;;;;5022534;28;20026;-89
2021/03/12 12:00:35;;;;;;;7.25;4.93;;;;;;;;;;5026730;28;20025;-82
2021/03/12 12:03:02;;;;;;;7.70;6.00;;;;;;;;;;5053351;28;20079;-83
2021/03/12 12:05:28;;;;;;;8.27;6.93;;;;;;;;;;5035855;28;20026;-88
2021/03/12 12:07:54;;;;;;;5.57;5.00;;;;;;;;;;5050938;28;20509;-86
2021/03/12 12:10:21;;;;;;;12.57;5.22;;;;;;;;;;5035567;28;20511;-87
2021/03/12 12:12:48;;;;;;;6.97;5.10;;;;;;;;;;5015422;28;20072;-85
2021/03/12 12:15:18;;;;;;;7.47;5.85;;;;;;;;;;5045645;28;20037;-83
2021/03/12 12:17:48;;;;;;;9.98;7.85;;;;;;;;;;5052403;28;20029;-84
2021/03/12 12:20:15;;;;;;;6.97;5.00;;;;;;;;;;5033091;28;20029;-85
2021/03/12 12:22:42;;;;;;;6.60;5.53;;;;;;;;;;5031787;28;20040;-83
2021/03/12 12:25:08;;;;;;;7.65;4.53;;;;;;;;;;5031130;28;20030;-84
2021/03/12 12:27:35;;;;;;;6.30;5.30;;;;;;;;;;5032766;28;20075;-83
2021/03/12 12:30:01;;;;;;;13.32;5.40;;;;;;;;;;5032698;28;20096;-85
2021/03/12 12:32:27;;;;;;;5.85;5.25;;;;;;;;;;5032583;28;20037;-84
2021/03/12 12:34:53;;;;;;;7.20;6.18;;;;;;;;;;5031658;28;20033;-85
2021/03/12 12:37:20;;;;;;;5.28;4.35;;;;;;;;;;5032657;28;20057;-84
2021/03/12 12:39:46;;;;;;;5.25;4.75;;;;;;;;;;5030952;28;20033;-85
2021/03/12 12:42:13;;;;;;;7.35;5.30;;;;;;;;;;5031012;28;20447;-84
2021/03/12 12:44:42;;;;;;;7.57;5.22;;;;;;;;;;5031157;28;20388;-83
2021/03/12 12:47:20;;;;;;;6.88;4.53;;;;;;;;;;5045565;28;20395;-83
2021/03/12 12:50:23;;;;;;;8.35;5.65;;;;;;;;;;5052656;28;20028;-86
2021/03/12 12:52:49;;;;;;;8.05;5.80;;;;;;;;;;5051337;28;20034;-83
2021/03/12 12:55:18;;;;;;;6.65;5.18;;;;;;;;;;5051785;28;20392;-84
2021/03/12 12:57:45;;;;;;;7.00;5.13;;;;;;;;;;5053121;28;20112;-85
2021/03/12 13:00:12;;;;;;;4.97;4.22;;;;;;;;;;5053320;28;20040;-86
2021/03/12 13:02:38;;;;;;;5.65;5.05;;;;;;;;;;5053530;28;20055;-86
2021/03/12 13:05:05;;;;;;;4.60;3.80;;;;;;;;;;5045086;28;20029;-84
2021/03/12 13:07:31;;;;;;;4.47;3.83;;;;;;;;;;5052573;28;20033;-83
2021/03/12 13:09:58;;;;;;;9.10;5.80;;;;;;;;;;5053935;28;20492;-83
2021/03/12 13:12:24;;;;;;;7.38;6.38;;;;;;;;;;5036199;28;20038;-85
2021/03/12 13:14:50;;;;;;;7.28;5.75;;;;;;;;;;5023769;28;20052;-83
2021/03/12 13:17:20;;;;;;;7.85;6.45;;;;;;;;;;5024080;28;20381;-82
2021/03/12 13:19:47;;;;;;;6.47;4.95;;;;;;;;;;5021627;28;20025;-84
2021/03/12 13:22:13;;;;;;;9.50;6.20;;;;;;;;;;5022508;28;20021;-83
2021/03/12 13:24:39;;;;;;;9.20;7.50;;;;;;;;;;5021529;28;20480;-83
2021/03/12 13:27:07;;;;;;;9.27;6.55;;;;;;;;;;5035079;28;20036;-86
2021/03/12 13:29:34;;;;;;;10.50;6.57;;;;;;;;;;5053162;28;20388;-84
2021/03/12 13:32:01;;;;;;;8.02;6.55;;;;;;;;;;5035904;28;20037;-84
2021/03/12 13:34:27;;;;;;;8.13;7.30;;;;;;;;;;5032255;28;20034;-84
2021/03/12 13:36:53;;;;;;;8.63;6.40;;;;;;;;;;5051522;28;20029;-86
2021/03/12 13:39:19;;;;;;;7.80;5.70;;;;;;;;;;5032049;28;20060;-85
2021/03/12 13:41:45;;;;;;;4.80;3.53;;;;;;;;;;5032398;28;20029;-83
2021/03/12 13:44:13;;;;;;;5.00;3.90;;;;;;;;;;5032436;28;20032;-85
2021/03/12 13:46:41;;;;;;;7.60;4.95;;;;;;;;;;5032234;28;20034;-85
2021/03/12 13:49:07;;;;;;;5.68;3.53;;;;;;;;;;5032516;28;20022;-85
2021/03/12 13:51:33;;;;;;;4.93;3.90;;;;;;;;;;5036269;28;20087;-87
2021/03/12 13:53:59;;;;;;;5.00;3.97;;;;;;;;;;5032164;28;20124;-87
2021/03/12 13:56:26;;;;;;;5.03;3.58;;;;;;;;;;5040445;28;20055;-84
2021/03/12 13:58:52;;;;;;;9.15;3.92;;;;;;;;;;5043369;28;20051;-84
2021/03/12 14:01:18;;;;;;;5.35;3.40;;;;;;;;;;5037063;28;20021;-86
2021/03/12 14:03:45;;;;;;;4.28;3.05;;;;;;;;;;5032127;28;20053;-84
2021/03/12 14:06:11;;;;;;;5.38;4.22;;;;;;;;;;5032789;28;20021;-85
2021/03/12 14:08:37;;;;;;;5.70;4.20;;;;;;;;;;5034918;28;20079;-85
2021/03/12 14:11:04;;;;;;;8.35;4.72;;;;;;;;;;5052186;28;20500;-86
2021/03/12 14:13:30;;;;;;;5.18;3.60;;;;;;;;;;5042538;28;20124;-83
2021/03/12 14:15:57;;;;;;;5.75;3.28;;;;;;;;;;5032165;28;20107;-82
2021/03/12 14:18:23;;;;;;;3.95;3.35;;;;;;;;;;5040516;28;20075;-82
2021/03/12 14:20:49;;;;;;;5.97;4.13;;;;;;;;;;5051975;28;20468;-82
2021/03/12 14:23:15;;;;;;;11.20;6.22;;;;;;;;;;5052295;28;20100;-82
2021/03/12 14:25:41;;;;;;;9.50;6.57;;;;;;;;;;5051951;28;20445;-84
2021/03/12 14:28:07;;;;;;;8.90;5.68;;;;;;;;;;5052282;28;20036;-84
2021/03/12 14:30:33;;;;;;;13.60;9.50;;;;;;;;;;5050451;28;21606;-84
2021/03/12 14:33:00;;;;;;;10.15;6.63;;;;;;;;;;5042330;28;20476;-83
2021/03/12 14:35:26;;;;;;;5.80;4.45;;;;;;;;;;5053253;28;20079;-83
2021/03/12 14:37:52;;;;;;;6.88;6.03;;;;;;;;;;5053186;28;20025;-83